Time;durP1;ratioP1;P1;durP2;ratioP2;P2;SDS_P1;SDS_P2;PMS_P1;PMS_P2;Temp;Humidity;BMP_temperature;BMP_pressure;BME280_temperature;BME280_humidity;BME280_pressure;Samples;Min_cycle;Max_cycle;Signal;HPM_P1;HPM_P2
2023/03/03 00:01:25;;;;;;;15.40;9.30;;;;;;;3.05;82.83;95722.73;106824;1275;24259;-68
2023/03/03 00:03:53;;;;;;;16.20;9.70;;;;;;;3.07;82.75;95722.59;106806;1275;22523;-68
2023/03/03 00:06:23;;;;;;;15.60;10.10;;;;;;;3.11;82.49;95723.16;106735;1275;22512;-68
2023/03/03 00:08:51;;;;;;;15.40;9.40;;;;;;;3.06;82.23;95726.23;107063;1275;27213;-68
2023/03/03 00:11:20;;;;;;;14.40;8.10;;;;;;;3.00;81.82;95721.63;106996;1275;22520;-68
2023/03/03 00:13:54;;;;;;;18.40;8.60;;;;;;;2.82;81.48;95717.93;107042;1275;22738;-68
2023/03/03 00:16:28;;;;;;;15.70;9.10;;;;;;;2.74;82.03;95713.30;106773;1275;24242;-68
2023/03/03 00:18:57;;;;;;;16.30;9.40;;;;;;;2.74;82.37;95713.65;106622;1275;22796;-68
2023/03/03 00:21:31;;;;;;;14.10;8.00;;;;;;;2.73;82.47;95712.60;106786;1275;22529;-68
2023/03/03 00:24:13;;;;;;;17.50;8.70;;;;;;;2.65;82.25;95711.98;106678;1275;24263;-68
2023/03/03 00:26:56;;;;;;;23.90;8.60;;;;;;;2.64;82.40;95711.80;106683;1275;25226;-68
2023/03/03 00:29:31;;;;;;;15.30;8.50;;;;;;;2.59;82.55;95712.77;106725;1275;24362;-68
2023/03/03 00:32:30;;;;;;;14.60;8.10;;;;;;;2.54;82.47;95712.33;106677;1275;22657;-68
2023/03/03 00:35:21;;;;;;;9.70;6.60;;;;;;;2.49;82.84;95711.92;106725;1275;25497;-68
2023/03/03 00:37:58;;;;;;;16.80;8.60;;;;;;;2.35;82.66;95710.52;106671;1275;24531;-68
2023/03/03 00:40:38;;;;;;;20.60;9.40;;;;;;;2.40;83.08;95710.40;106610;1275;24226;-68
2023/03/03 00:43:18;;;;;;;18.40;9.70;;;;;;;2.44;84.47;95707.68;106757;1275;24356;-68
2023/03/03 00:45:46;;;;;;;18.90;9.90;;;;;;;2.47;84.72;95703.04;106590;1275;22522;-68
2023/03/03 00:48:20;;;;;;;16.30;9.10;;;;;;;2.49;84.21;95703.95;106720;1275;24347;-68
2023/03/03 00:50:51;;;;;;;11.60;6.60;;;;;;;2.57;84.18;95698.66;106729;1275;25284;-68
2023/03/03 00:53:21;;;;;;;11.10;6.40;;;;;;;2.58;83.83;95699.88;106575;1275;22787;-68
2023/03/03 00:55:51;;;;;;;17.60;7.90;;;;;;;2.62;83.72;95697.36;106773;1275;24247;-68
2023/03/03 00:58:22;;;;;;;19.40;7.60;;;;;;;2.65;83.70;95697.20;106661;1275;25426;-68
2023/03/03 01:00:52;;;;;;;12.50;7.00;;;;;;;2.66;83.61;95693.24;106676;1275;22641;-68
2023/03/03 01:03:24;;;;;;;15.00;6.80;;;;;;;2.66;83.25;95693.58;106699;1275;26718;-68
2023/03/03 01:05:53;;;;;;;13.20;6.90;;;;;;;2.57;82.76;95695.20;106569;1275;23140;-68
2023/03/03 01:08:22;;;;;;;15.10;6.70;;;;;;;2.51;83.01;95695.62;106693;1275;22525;-67
2023/03/03 01:10:53;;;;;;;14.10;6.80;;;;;;;2.46;83.15;95691.91;106699;1275;24239;-68
2023/03/03 01:13:26;;;;;;;12.90;6.80;;;;;;;2.50;83.27;95694.23;106659;1275;23610;-68
2023/03/03 01:15:55;;;;;;;10.40;6.40;;;;;;;2.58;84.01;95686.69;106705;1275;22535;-68
2023/03/03 01:18:23;;;;;;;16.60;7.10;;;;;;;2.63;83.62;95688.84;106665;1275;24434;-68
2023/03/03 01:20:51;;;;;;;8.30;5.70;;;;;;;2.68;83.59;95685.79;106692;1275;24217;-68
2023/03/03 01:23:19;;;;;;;10.80;6.30;;;;;;;2.75;83.80;95680.15;106593;1275;23854;-68
2023/03/03 01:25:48;;;;;;;11.30;5.90;;;;;;;2.82;83.56;95678.84;106673;1275;22752;-68
2023/03/03 01:28:16;;;;;;;13.50;5.80;;;;;;;2.88;83.38;95677.70;106760;1263;22527;-68
2023/03/03 01:30:45;;;;;;;8.90;6.00;;;;;;;2.80;82.53;95676.05;106790;1275;22636;-68
2023/03/03 01:33:14;;;;;;;12.30;5.90;;;;;;;2.69;82.61;95677.63;106780;1275;22521;-68
2023/03/03 01:35:44;;;;;;;11.80;6.20;;;;;;;2.63;82.92;95673.91;106663;1275;22517;-68
2023/03/03 01:38:15;;;;;;;12.70;6.80;;;;;;;2.61;83.12;95670.59;106632;1256;23007;-67
2023/03/03 01:40:51;;;;;;;12.80;6.10;;;;;;;2.63;83.25;95668.86;106713;1275;22613;-68
2023/03/03 01:43:19;;;;;;;15.60;6.50;;;;;;;2.62;83.09;95670.08;106757;1275;25345;-68
2023/03/03 01:45:47;;;;;;;11.40;5.50;;;;;;;2.52;82.84;95670.98;106593;1275;22523;-68
2023/03/03 01:48:30;;;;;;;9.90;5.10;;;;;;;2.43;83.16;95672.25;106652;1275;22536;-68
2023/03/03 01:51:02;;;;;;;11.00;5.80;;;;;;;2.35;83.00;95670.94;106722;1275;24270;-68
2023/03/03 01:53:41;;;;;;;11.10;5.10;;;;;;;2.35;83.40;95672.33;106617;1275;23163;-66
2023/03/03 01:56:09;;;;;;;10.10;5.30;;;;;;;2.28;83.35;95674.48;106692;1275;25312;-68
2023/03/03 01:58:48;;;;;;;15.80;6.60;;;;;;;2.24;83.23;95678.91;106604;1275;22532;-68
2023/03/03 02:01:21;;;;;;;14.00;6.20;;;;;;;2.27;83.38;95680.86;106727;1275;24225;-68
2023/03/03 02:03:52;;;;;;;13.30;6.20;;;;;;;2.28;83.72;95677.95;106788;1275;22520;-67
2023/03/03 02:06:27;;;;;;;9.20;5.20;;;;;;;2.25;83.78;95676.67;106717;1275;24237;-68
2023/03/03 02:09:24;;;;;;;12.50;6.90;;;;;;;2.21;83.96;95679.04;106532;1275;23867;-68
2023/03/03 02:11:56;;;;;;;11.30;6.00;;;;;;;2.28;84.17;95670.30;106714;1275;25452;-68
2023/03/03 02:14:25;;;;;;;15.50;6.70;;;;;;;2.34;84.13;95668.48;106740;1275;22609;-68
2023/03/03 02:16:54;;;;;;;11.50;5.90;;;;;;;2.42;84.54;95668.77;106727;1275;24360;-68
2023/03/03 02:20:02;;;;;;;14.20;6.40;;;;;;;2.47;84.24;95666.05;106707;1275;25353;-68
2023/03/03 02:22:46;;;;;;;13.80;6.60;;;;;;;2.48;84.14;95667.45;106571;1275;24291;-67
2023/03/03 02:25:35;;;;;;;10.50;6.00;;;;;;;2.49;84.28;95665.04;106745;1275;22847;-68
2023/03/03 02:28:03;;;;;;;15.70;6.90;;;;;;;2.49;83.97;95663.30;106642;1275;25398;-68
2023/03/03 02:30:37;;;;;;;14.00;6.80;;;;;;;2.52;84.34;95661.42;106617;1275;24235;-68
2023/03/03 02:33:06;;;;;;;17.20;7.80;;;;;;;2.57;84.41;95660.11;106614;1275;24212;-68
2023/03/03 02:35:37;;;;;;;15.70;7.30;;;;;;;2.50;83.76;95653.58;106703;1275;25588;-68
2023/03/03 02:38:26;;;;;;;11.90;6.90;;;;;;;2.46;83.76;95658.58;106727;1275;24179;-68
2023/03/03 02:41:00;;;;;;;17.80;8.40;;;;;;;2.44;83.90;95655.60;106654;1275;22534;-68
2023/03/03 02:43:44;;;;;;;17.70;8.20;;;;;;;2.52;84.44;95654.66;106683;1275;22520;-68
2023/03/03 02:46:12;;;;;;;19.30;8.50;;;;;;;2.57;84.78;95646.56;106611;1275;24259;-68
2023/03/03 02:48:40;;;;;;;12.60;8.60;;;;;;;2.59;84.77;95650.77;106732;1275;25318;-68
2023/03/03 02:51:09;;;;;;;15.30;8.10;;;;;;;2.59;84.29;95643.98;106765;1275;22514;-68
2023/03/03 02:53:40;;;;;;;15.70;8.40;;;;;;;2.50;84.45;95644.05;106656;1275;22520;-68
2023/03/03 02:56:08;;;;;;;16.60;10.30;;;;;;;2.51;84.17;95637.64;106727;1275;22513;-68
2023/03/03 02:58:37;;;;;;;16.50;9.00;;;;;;;2.52;84.37;95636.42;106802;1275;24244;-68
2023/03/03 03:01:05;;;;;;;13.10;8.00;;;;;;;2.50;84.62;95634.84;106930;1266;22769;-68
2023/03/03 03:03:34;;;;;;;20.10;8.50;;;;;;;2.53;84.74;95633.85;106788;1275;22506;-68
2023/03/03 03:06:03;;;;;;;17.10;8.00;;;;;;;2.54;85.03;95629.34;106850;1275;25683;-68
2023/03/03 03:08:32;;;;;;;16.80;8.60;;;;;;;2.51;84.79;95632.41;107006;1275;22615;-68
2023/03/03 03:11:00;;;;;;;12.50;6.80;;;;;;;2.45;84.51;95629.74;106718;1275;24295;-67
2023/03/03 03:13:30;;;;;;;13.20;7.60;;;;;;;2.37;84.37;95629.11;106708;1275;22636;-68
2023/03/03 03:16:00;;;;;;;13.50;6.90;;;;;;;2.33;84.72;95627.86;106835;1275;24436;-68
2023/03/03 03:18:29;;;;;;;13.20;7.20;;;;;;;2.29;85.03;95626.92;106724;1275;25417;-67
2023/03/03 03:21:05;;;;;;;13.40;8.30;;;;;;;2.23;85.31;95624.76;106549;1275;22529;-68
2023/03/03 03:23:35;;;;;;;14.30;7.40;;;;;;;2.25;84.84;95626.16;106645;1275;25300;-68
2023/03/03 03:26:04;;;;;;;11.40;7.30;;;;;;;2.26;84.99;95622.37;106612;1275;23029;-68
2023/03/03 03:28:32;;;;;;;15.80;8.60;;;;;;;2.19;84.77;95620.17;106851;1275;22646;-68
2023/03/03 03:31:02;;;;;;;21.70;11.60;;;;;;;2.15;85.21;95616.32;106740;1275;22978;-68
2023/03/03 03:33:30;;;;;;;14.80;8.70;;;;;;;2.14;85.43;95618.90;106877;1275;22513;-68
2023/03/03 03:35:59;;;;;;;13.60;9.00;;;;;;;2.15;85.58;95620.48;106747;1275;25291;-68
2023/03/03 03:38:28;;;;;;;12.70;8.90;;;;;;;2.20;86.10;95613.78;106784;1275;22531;-68
2023/03/03 03:40:58;;;;;;;19.00;8.90;;;;;;;2.21;85.65;95617.79;106660;1275;25371;-68
2023/03/03 03:43:27;;;;;;;13.50;7.80;;;;;;;2.20;85.93;95615.50;106784;1275;24228;-69
2023/03/03 03:45:55;;;;;;;14.20;8.30;;;;;;;2.25;86.16;95613.67;106718;1275;24241;-68
2023/03/03 03:48:25;;;;;;;16.80;9.10;;;;;;;2.31;86.03;95611.69;106612;1275;25369;-68
2023/03/03 03:50:53;;;;;;;17.40;9.80;;;;;;;2.38;86.09;95611.77;106715;1275;24283;-69
2023/03/03 03:53:23;;;;;;;16.20;8.10;;;;;;;2.38;85.76;95608.13;106742;1275;25465;-68
2023/03/03 03:55:52;;;;;;;13.50;7.80;;;;;;;2.41;85.88;95611.47;106748;1275;25449;-68
2023/03/03 03:58:20;;;;;;;12.50;8.30;;;;;;;2.47;85.70;95611.54;106770;1275;25268;-69
2023/03/03 04:00:53;;;;;;;21.60;8.20;;;;;;;2.55;85.81;95603.48;106667;1275;25392;-69
2023/03/03 04:03:22;;;;;;;18.00;7.80;;;;;;;2.61;85.48;95606.66;106710;1275;25239;-68
2023/03/03 04:05:52;;;;;;;14.90;8.50;;;;;;;2.55;84.71;95604.52;106654;1275;22515;-68
2023/03/03 04:08:21;;;;;;;11.40;7.30;;;;;;;2.47;84.53;95609.62;106624;1263;25313;-68
2023/03/03 04:10:49;;;;;;;17.20;8.40;;;;;;;2.42;84.83;95607.30;106688;1275;25485;-69
2023/03/03 04:13:18;;;;;;;9.60;7.10;;;;;;;2.43;85.14;95604.38;106593;1275;24389;-68
2023/03/03 04:15:46;;;;;;;13.60;8.00;;;;;;;2.40;84.81;95604.84;106616;1275;24256;-68
2023/03/03 04:18:14;;;;;;;11.40;7.70;;;;;;;2.33;85.27;95601.98;106640;1275;25400;-69
2023/03/03 04:20:44;;;;;;;10.40;6.80;;;;;;;2.41;85.77;95598.97;106666;1275;25220;-68
2023/03/03 04:23:13;;;;;;;12.60;7.80;;;;;;;2.42;85.09;95602.45;106765;1275;22517;-69
2023/03/03 04:25:42;;;;;;;18.20;8.60;;;;;;;2.44;85.41;95601.25;106651;1275;22560;-69
2023/03/03 04:28:15;;;;;;;15.10;7.40;;;;;;;2.50;85.56;95597.69;106822;1275;22734;-69
2023/03/03 04:30:44;;;;;;;12.40;7.30;;;;;;;2.49;85.08;95593.85;106969;1275;22540;-68
2023/03/03 04:33:14;;;;;;;17.40;8.50;;;;;;;2.42;84.73;95597.58;106728;1275;22589;-70
2023/03/03 04:35:42;;;;;;;17.30;8.20;;;;;;;2.41;84.90;95598.78;106640;1275;22521;-68
2023/03/03 04:38:11;;;;;;;11.90;7.80;;;;;;;2.42;84.92;95599.50;106714;1263;22632;-69
2023/03/03 04:40:40;;;;;;;12.10;6.20;;;;;;;2.43;84.67;95602.11;106702;1275;24241;-68
2023/03/03 04:43:09;;;;;;;11.70;7.30;;;;;;;2.34;84.70;95601.12;106792;1275;22781;-68
2023/03/03 04:45:37;;;;;;;16.40;7.40;;;;;;;2.30;85.16;95602.80;106820;1275;22531;-69
2023/03/03 04:48:06;;;;;;;11.40;6.70;;;;;;;2.26;85.22;95602.40;106715;1275;22517;-69
2023/03/03 04:50:35;;;;;;;10.40;6.90;;;;;;;2.19;85.56;95600.92;106704;1275;24067;-68
2023/03/03 04:53:03;;;;;;;10.50;6.50;;;;;;;2.14;85.70;95601.20;106737;1275;25227;-69
2023/03/03 04:55:32;;;;;;;12.90;7.80;;;;;;;2.09;85.49;95601.13;106572;1275;22524;-69
2023/03/03 04:58:00;;;;;;;19.20;6.80;;;;;;;2.08;85.56;95600.59;106776;1275;22653;-69
2023/03/03 05:00:29;;;;;;;14.90;7.80;;;;;;;2.06;85.77;95600.05;106623;1275;22518;-69
2023/03/03 05:02:58;;;;;;;14.50;8.40;;;;;;;2.04;85.40;95598.83;106762;1263;24380;-69
2023/03/03 05:05:27;;;;;;;14.60;8.70;;;;;;;2.04;85.40;95598.12;106589;1275;25389;-68
2023/03/03 05:07:55;;;;;;;21.10;8.80;;;;;;;2.06;85.87;95593.98;106758;1275;22633;-69
2023/03/03 05:10:23;;;;;;;16.50;9.70;;;;;;;2.07;85.62;95599.21;106723;1275;23219;-69
2023/03/03 05:12:51;;;;;;;29.00;12.60;;;;;;;2.06;86.26;95594.14;106738;1275;25262;-69
2023/03/03 05:15:20;;;;;;;17.80;8.40;;;;;;;2.10;86.42;95598.36;106734;1275;24220;-69
2023/03/03 05:17:48;;;;;;;24.20;11.30;;;;;;;2.12;85.91;95599.79;106765;1275;25457;-69
2023/03/03 05:20:17;;;;;;;14.70;8.20;;;;;;;2.12;85.75;95597.02;106748;1275;24299;-69
2023/03/03 05:22:45;;;;;;;13.30;7.90;;;;;;;2.18;86.13;95597.61;106779;1275;22637;-69
2023/03/03 05:25:13;;;;;;;13.30;7.20;;;;;;;2.24;86.13;95599.95;106659;1263;24177;-68
2023/03/03 05:27:42;;;;;;;16.00;11.50;;;;;;;2.25;86.46;95599.44;106686;1275;22630;-69
2023/03/03 05:30:11;;;;;;;13.60;7.60;;;;;;;2.33;86.65;95594.52;106793;1275;22626;-69
2023/03/03 05:32:39;;;;;;;14.50;8.70;;;;;;;2.38;86.38;95597.19;106787;1275;23454;-68
2023/03/03 05:35:08;;;;;;;14.10;8.30;;;;;;;2.39;86.23;95593.39;106619;1275;22521;-69
2023/03/03 05:37:36;;;;;;;12.70;7.50;;;;;;;2.51;86.45;95593.17;106637;1275;22806;-69
2023/03/03 05:40:05;;;;;;;11.10;6.60;;;;;;;2.54;85.73;95592.35;106650;1275;24347;-68
2023/03/03 05:42:33;;;;;;;18.60;6.70;;;;;;;2.52;85.44;95590.94;106761;1275;25235;-68
2023/03/03 05:45:02;;;;;;;16.80;7.60;;;;;;;2.52;85.57;95591.98;106635;1275;22560;-69
2023/03/03 05:47:30;;;;;;;20.40;8.60;;;;;;;2.56;85.98;95593.08;106716;1275;25597;-69
2023/03/03 05:49:59;;;;;;;18.80;8.70;;;;;;;2.59;85.93;95590.84;106725;1275;22513;-69
2023/03/03 05:52:28;;;;;;;23.50;13.60;;;;;;;2.70;86.23;95591.33;106734;1275;25268;-69
2023/03/03 05:54:56;;;;;;;16.50;8.10;;;;;;;2.72;85.50;95592.91;106729;1272;22516;-68
2023/03/03 05:57:24;;;;;;;21.10;11.80;;;;;;;2.74;85.51;95593.11;106678;1275;22785;-68
2023/03/03 05:59:52;;;;;;;12.70;7.80;;;;;;;2.69;85.05;95593.23;106734;1275;25358;-65
2023/03/03 06:02:20;;;;;;;15.00;9.80;;;;;;;2.62;85.30;95596.80;106672;1275;22546;-67
2023/03/03 06:04:49;;;;;;;18.40;10.60;;;;;;;2.63;85.68;95596.29;106593;1275;22530;-67
2023/03/03 06:07:17;;;;;;;21.70;10.30;;;;;;;2.61;85.68;95598.86;106762;1275;22676;-66
2023/03/03 06:09:45;;;;;;;15.80;9.70;;;;;;;2.59;85.97;95597.27;106574;1275;25392;-68
2023/03/03 06:12:13;;;;;;;11.00;7.50;;;;;;;2.64;86.03;95599.42;106919;1274;24174;-68
2023/03/03 06:14:41;;;;;;;10.30;7.20;;;;;;;2.63;85.46;95594.36;106702;1275;22514;-71
2023/03/03 06:17:09;;;;;;;17.60;10.00;;;;;;;2.62;85.52;95595.90;106719;1275;25190;-68
2023/03/03 06:19:38;;;;;;;27.20;16.60;;;;;;;2.64;85.87;95595.25;106623;1275;22542;-69
2023/03/03 06:22:07;;;;;;;25.40;15.50;;;;;;;2.69;85.74;95591.66;106552;1275;25249;-68
2023/03/03 06:24:35;;;;;;;25.20;14.20;;;;;;;2.70;85.73;95592.71;106607;1275;22524;-70
2023/03/03 06:27:03;;;;;;;31.50;16.70;;;;;;;2.71;85.69;95591.51;106662;1275;24225;-68
2023/03/03 06:29:31;;;;;;;29.20;13.20;;;;;;;2.73;86.09;95591.19;106372;1275;22504;-67
2023/03/03 06:32:00;;;;;;;20.80;11.80;;;;;;;2.78;86.50;95596.98;106872;1268;22544;-67
2023/03/03 06:34:28;;;;;;;51.60;26.10;;;;;;;2.86;86.55;95597.94;106683;1270;24384;-68
2023/03/03 06:36:56;;;;;;;44.90;24.10;;;;;;;2.95;86.23;95595.08;106526;1270;22518;-66
2023/03/03 06:39:24;;;;;;;50.10;28.40;;;;;;;3.05;85.96;95598.30;106623;1269;22540;-66
2023/03/03 06:41:53;;;;;;;47.60;27.50;;;;;;;3.14;85.67;95595.45;106587;1270;24215;-66
2023/03/03 06:44:21;;;;;;;82.80;44.40;;;;;;;3.19;85.30;95600.72;106513;1272;25386;-68
2023/03/03 06:46:49;;;;;;;106.80;53.40;;;;;;;3.24;85.12;95601.30;106886;1275;22561;-71
2023/03/03 06:49:18;;;;;;;53.00;29.90;;;;;;;3.30;84.89;95598.73;106626;1257;24377;-72
2023/03/03 06:51:46;;;;;;;80.00;41.50;;;;;;;3.35;84.61;95597.22;106674;1275;22824;-68
2023/03/03 06:54:18;;;;;;;80.80;41.10;;;;;;;3.37;84.39;95598.63;106685;1275;22639;-69
2023/03/03 06:56:48;;;;;;;63.00;34.70;;;;;;;3.42;84.49;95599.73;106537;1275;22513;-67
2023/03/03 06:59:19;;;;;;;59.00;33.20;;;;;;;3.48;84.45;95599.24;106473;1275;25341;-67
2023/03/03 07:01:49;;;;;;;56.60;28.30;;;;;;;3.56;84.36;95599.48;106834;1268;25465;-67
2023/03/03 07:04:28;;;;;;;50.70;28.50;;;;;;;3.62;84.05;95596.06;107366;1274;22601;-66
2023/03/03 07:06:59;;;;;;;59.40;30.20;;;;;;;3.65;83.28;95598.70;106475;1276;25291;-67
2023/03/03 07:09:28;;;;;;;43.20;25.60;;;;;;;3.74;83.28;95601.20;106426;1276;24219;-67
2023/03/03 07:12:01;;;;;;;41.70;24.80;;;;;;;3.87;83.64;95601.30;107611;1276;25451;-65
2023/03/03 07:14:30;;;;;;;47.40;27.70;;;;;;;4.06;83.24;95595.86;108446;1276;22658;-64
2023/03/03 07:17:04;;;;;;;56.60;33.50;;;;;;;4.27;83.49;95598.42;106405;1276;23041;-71
2023/03/03 07:19:34;;;;;;;59.80;35.00;;;;;;;4.51;83.17;95596.81;108309;1276;22661;-66
2023/03/03 07:22:19;;;;;;;60.70;33.70;;;;;;;4.67;81.19;95595.85;107112;1276;22646;-67
2023/03/03 07:24:53;;;;;;;54.00;29.40;;;;;;;4.78;80.86;95594.85;106523;1269;24871;-67
2023/03/03 07:27:27;;;;;;;50.30;27.10;;;;;;;4.95;80.65;95592.81;108339;1275;22633;-69
2023/03/03 07:30:13;;;;;;;47.60;28.30;;;;;;;5.03;79.59;95590.56;106621;1275;25281;-66
2023/03/03 07:32:45;;;;;;;42.70;26.00;;;;;;;5.19;79.71;95587.63;106905;1269;22524;-65
2023/03/03 07:35:42;;;;;;;44.00;25.70;;;;;;;5.32;78.86;95587.66;106661;1275;25459;-69
2023/03/03 07:38:28;;;;;;;42.70;26.10;;;;;;;5.38;77.52;95586.46;108544;1267;22633;-71
2023/03/03 07:41:00;;;;;;;39.40;24.50;;;;;;;5.42;77.70;95589.42;106722;1272;25390;-70
2023/03/03 07:43:36;;;;;;;32.00;18.50;;;;;;;5.57;78.43;95585.95;106120;1275;638557;-67
2023/03/03 07:46:41;;;;;;;25.60;13.70;;;;;;;5.70;77.13;95586.14;107306;1275;25390;-68
2023/03/03 07:49:34;;;;;;;26.60;15.30;;;;;;;5.80;76.53;95583.67;107084;1275;25392;-67
2023/03/03 07:52:35;;;;;;;27.20;16.50;;;;;;;5.86;75.80;95583.85;106822;1275;24295;-68
2023/03/03 07:55:38;;;;;;;25.00;14.60;;;;;;;5.84;75.56;95584.38;106423;1275;22568;-68
2023/03/03 07:58:11;;;;;;;26.90;15.50;;;;;;;5.83;75.76;95582.98;106705;1271;24261;-69
2023/03/03 08:01:11;;;;;;;30.30;16.30;;;;;;;5.83;75.39;95586.98;106557;1276;22737;-68
2023/03/03 08:03:41;;;;;;;22.20;14.30;;;;;;;5.87;75.70;95590.65;106563;1275;25324;-67
2023/03/03 08:06:35;;;;;;;26.30;15.50;;;;;;;5.88;75.57;95590.30;106798;1276;22640;-67
2023/03/03 08:09:09;;;;;;;;;;;;;;;5.93;75.69;95588.58;106898;1276;25475;-68
2023/03/03 08:11:57;;;;;;;;;;;;;;;5.94;75.60;95590.68;106711;1276;22494;-65
2023/03/03 08:14:36;;;;;;;25.20;15.00;;;;;;;6.00;75.65;95589.98;106548;1264;24266;-69
2023/03/03 08:17:20;;;;;;;31.50;17.40;;;;;;;6.03;74.97;95592.77;106921;1276;25217;-67
2023/03/03 08:19:50;;;;;;;28.80;18.40;;;;;;;6.03;75.01;95594.35;106645;1276;24801;-66
2023/03/03 08:22:30;;;;;;;42.90;28.90;;;;;;;6.04;74.67;95592.08;106530;1276;22883;-66
2023/03/03 08:24:58;;;;;;;40.30;26.70;;;;;;;6.04;74.69;95593.29;106672;1265;22553;-66
2023/03/03 08:27:26;;;;;;;53.60;32.40;;;;;;;6.12;74.82;95587.17;106574;1276;23011;-68
2023/03/03 08:29:54;;;;;;;64.60;36.80;;;;;;;6.19;74.31;95587.33;106547;1276;25277;-67
2023/03/03 08:32:23;;;;;;;57.00;34.30;;;;;;;6.27;74.42;95587.33;106856;1276;22847;-67
2023/03/03 08:34:51;;;;;;;39.40;22.20;;;;;;;6.34;73.82;95584.87;106501;1272;23077;-76
2023/03/03 08:37:19;;;;;;;22.10;13.80;;;;;;;6.38;73.78;95583.11;106759;1275;25468;-70
2023/03/03 08:39:48;;;;;;;23.10;12.60;;;;;;;6.47;73.57;95588.66;106683;1275;25579;-74
2023/03/03 08:42:16;;;;;;;23.00;12.70;;;;;;;6.58;73.58;95585.84;106655;1275;25527;-71
2023/03/03 08:44:44;;;;;;;25.70;12.90;;;;;;;6.69;73.18;95584.23;106649;1275;22730;-68
2023/03/03 08:47:12;;;;;;;19.60;11.40;;;;;;;6.77;72.05;95581.77;106725;1270;25265;-69
2023/03/03 08:49:40;;;;;;;17.60;10.90;;;;;;;6.83;71.76;95579.98;106599;1270;22567;-69
2023/03/03 08:52:08;;;;;;;18.10;11.40;;;;;;;6.92;71.82;95578.90;106679;1272;25681;-69
2023/03/03 08:54:36;;;;;;;22.60;13.00;;;;;;;7.01;71.11;95574.30;106535;1275;24330;-70
2023/03/03 08:57:05;;;;;;;23.00;12.20;;;;;;;7.09;70.80;95576.35;106908;1275;22628;-70
2023/03/03 08:59:37;;;;;;;22.70;12.10;;;;;;;7.18;70.31;95577.18;106867;1275;22514;-68
2023/03/03 09:02:06;;;;;;;24.90;16.10;;;;;;;7.30;70.09;95577.11;106629;1272;23134;-67
2023/03/03 09:04:34;;;;;;;26.50;16.40;;;;;;;7.42;69.36;95577.05;106591;1276;22574;-68
2023/03/03 09:07:03;;;;;;;34.10;19.90;;;;;;;7.54;69.11;95573.80;106756;1276;22539;-68
2023/03/03 09:09:31;;;;;;;27.60;20.10;;;;;;;7.78;68.60;95568.20;106440;1276;24216;-68
2023/03/03 09:12:15;;;;;;;30.70;18.20;;;;;;;8.14;67.79;95563.85;106511;1269;22513;-67
2023/03/03 09:14:44;;;;;;;29.70;16.40;;;;;;;8.59;66.15;95563.40;106942;1275;22633;-67
2023/03/03 09:17:24;;;;;;;30.70;18.10;;;;;;;8.70;64.49;95560.13;106601;1275;22629;-68
2023/03/03 09:20:01;;;;;;;24.30;11.10;;;;;;;8.85;64.09;95555.73;106565;1275;24381;-69
2023/03/03 09:22:35;;;;;;;20.60;9.00;;;;;;;8.98;62.33;95552.92;106721;1275;25383;-70
2023/03/03 09:25:20;;;;;;;17.40;9.70;;;;;;;9.17;61.21;95553.02;106622;1275;22797;-69
2023/03/03 09:27:53;;;;;;;22.10;10.40;;;;;;;9.36;61.09;95557.15;106780;1275;22525;-69
2023/03/03 09:30:52;;;;;;;21.20;9.40;;;;;;;9.30;60.55;95551.63;106718;1275;25587;-69
2023/03/03 09:33:28;;;;;;;13.10;8.60;;;;;;;9.38;59.19;95550.44;106688;1275;22521;-67
2023/03/03 09:36:16;;;;;;;12.50;7.30;;;;;;;9.54;57.85;95543.89;106575;1261;25376;-69
2023/03/03 09:38:45;;;;;;;15.10;10.80;;;;;;;9.72;57.10;95549.93;106509;1275;22546;-68
2023/03/03 09:41:36;;;;;;;16.10;6.70;;;;;;;9.76;55.63;95549.52;106990;1275;24249;-69
2023/03/03 09:44:40;;;;;;;14.70;8.10;;;;;;;9.84;55.27;95549.91;106637;1275;24252;-68
2023/03/03 09:47:09;;;;;;;11.70;6.40;;;;;;;9.49;54.32;95551.33;106658;1275;22510;-67
2023/03/03 09:50:29;;;;;;;12.10;7.00;;;;;;;9.32;55.02;95548.24;106668;1275;22514;-71
2023/03/03 09:53:27;;;;;;;15.10;7.20;;;;;;;9.22;54.77;95549.10;106523;1275;22877;-71
2023/03/03 09:56:20;;;;;;;7.90;5.00;;;;;;;9.20;54.14;95551.92;106649;1275;22520;-67
2023/03/03 09:59:07;;;;;;;12.00;6.60;;;;;;;9.18;54.85;95551.77;106672;1275;22782;-73
2023/03/03 10:01:36;;;;;;;13.40;5.40;;;;;;;9.14;55.27;95555.88;106655;1275;22652;-69
2023/03/03 10:04:41;;;;;;;11.20;5.60;;;;;;;9.16;55.98;95557.77;106519;1273;22540;-69
2023/03/03 10:07:15;;;;;;;13.80;5.30;;;;;;;9.14;53.49;95556.05;106632;1275;24204;-66
2023/03/03 10:09:43;;;;;;;12.60;6.30;;;;;;;9.24;54.70;95552.24;106630;1275;25462;-66
2023/03/03 10:12:27;;;;;;;12.30;5.50;;;;;;;9.55;55.00;95549.13;106659;1275;22766;-67
2023/03/03 10:15:18;;;;;;;16.80;7.90;;;;;;;9.94;53.53;95542.00;106750;1275;24346;-67
2023/03/03 10:17:46;;;;;;;13.50;5.40;;;;;;;10.29;52.77;95538.77;107003;1275;22606;-67
2023/03/03 10:20:30;;;;;;;14.50;6.40;;;;;;;10.46;50.85;95540.57;106737;1275;25437;-68
2023/03/03 10:23:36;;;;;;;9.00;4.90;;;;;;;10.39;50.06;95536.84;106617;1275;22524;-67
2023/03/03 10:26:21;;;;;;;21.80;9.30;;;;;;;10.24;49.72;95537.64;106601;1275;22596;-68
2023/03/03 10:29:18;;;;;;;11.20;4.90;;;;;;;9.93;48.47;95538.17;106815;1257;22524;-68
2023/03/03 10:32:20;;;;;;;10.30;4.50;;;;;;;9.78;49.00;95541.56;106713;1275;22584;-68
2023/03/03 10:35:01;;;;;;;7.80;4.90;;;;;;;9.82;49.57;95534.13;106689;1275;22528;-67
2023/03/03 10:37:41;;;;;;;12.30;6.60;;;;;;;9.78;49.89;95532.44;106701;1275;22522;-67
2023/03/03 10:40:24;;;;;;;8.90;4.80;;;;;;;9.81;49.72;95527.98;106685;1275;24231;-68
2023/03/03 10:43:34;;;;;;;9.20;4.70;;;;;;;10.11;49.06;95526.08;106885;1275;22724;-68
2023/03/03 10:46:50;;;;;;;8.20;4.70;;;;;;;10.15;48.16;95528.66;106714;1275;24037;-68
2023/03/03 10:49:55;;;;;;;10.70;4.80;;;;;;;9.93;48.92;95522.35;106723;1275;25500;-68
2023/03/03 10:52:33;;;;;;;10.40;5.30;;;;;;;10.23;48.97;95520.77;106758;1275;22517;-67
2023/03/03 10:55:07;;;;;;;8.70;4.40;;;;;;;10.30;48.58;95518.37;106989;1275;25386;-68
2023/03/03 10:57:48;;;;;;;16.00;8.80;;;;;;;10.44;47.41;95509.14;106973;1275;24199;-68
2023/03/03 11:00:25;;;;;;;10.00;5.40;;;;;;;11.06;46.31;95505.23;106730;1275;24381;-69
2023/03/03 11:03:16;;;;;;;12.70;7.20;;;;;;;11.56;47.44;95497.91;106820;1275;23408;-68
2023/03/03 11:05:44;;;;;;;11.30;5.20;;;;;;;11.75;45.87;95494.11;107006;1275;24377;-68
2023/03/03 11:08:22;;;;;;;7.10;4.40;;;;;;;11.60;45.35;95499.41;106827;1275;22564;-69
2023/03/03 11:10:59;;;;;;;9.30;5.50;;;;;;;12.03;44.87;95494.66;106660;1275;23819;-69
2023/03/03 11:13:56;;;;;;;7.40;4.70;;;;;;;12.55;43.99;95486.40;106882;1275;25444;-68
2023/03/03 11:16:46;;;;;;;8.00;4.30;;;;;;;13.05;41.93;95483.37;106742;1275;25213;-68
2023/03/03 11:19:24;;;;;;;11.80;4.90;;;;;;;12.72;41.62;95483.45;106728;1275;22520;-68
2023/03/03 11:22:09;;;;;;;8.80;4.20;;;;;;;12.30;41.91;95481.80;106698;1275;25455;-68
2023/03/03 11:24:40;;;;;;;11.40;4.30;;;;;;;11.95;43.27;95483.94;106692;1273;22775;-68
2023/03/03 11:27:46;;;;;;;14.40;5.30;;;;;;;11.73;43.99;95486.05;106613;1275;24244;-68
2023/03/03 11:30:50;;;;;;;10.80;5.60;;;;;;;12.20;44.07;95480.28;106546;1271;25607;-68
2023/03/03 11:33:18;;;;;;;;;;;;;;;12.87;42.78;95472.09;106632;1275;24227;-67
2023/03/03 11:36:08;;;;;;;10.30;4.90;;;;;;;13.12;42.15;95467.09;106606;1275;24231;-68
2023/03/03 11:38:54;;;;;;;11.10;5.60;;;;;;;13.55;39.57;95462.95;106704;1275;25466;-68
2023/03/03 11:41:31;;;;;;;11.90;6.00;;;;;;;13.33;39.64;95465.04;106559;1275;22518;-68
2023/03/03 11:44:17;;;;;;;10.10;5.70;;;;;;;12.97;40.02;95462.77;106597;1275;23884;-68
2023/03/03 11:47:03;;;;;;;11.00;5.70;;;;;;;12.74;40.48;95468.58;106701;1275;22777;-68
2023/03/03 11:49:40;;;;;;;11.70;5.50;;;;;;;12.33;41.36;95463.01;106862;1275;22561;-68
2023/03/03 11:52:36;;;;;;;10.10;6.30;;;;;;;12.02;41.97;95462.95;106949;1275;22656;-67
2023/03/03 11:55:11;;;;;;;9.10;6.30;;;;;;;11.78;42.99;95462.14;107001;1275;22517;-67
2023/03/03 11:58:01;;;;;;;12.20;7.10;;;;;;;11.59;43.03;95463.67;106915;1275;22791;-68
2023/03/03 12:00:33;;;;;;;12.10;6.80;;;;;;;11.16;43.49;95465.58;107026;1275;23018;-67